createdAt,value
2018-09-16T00:04:36.976Z,72.38
2018-09-16T00:20:12.262Z,73.90
2018-09-16T00:35:46.971Z,75.39
2018-09-16T00:51:21.540Z,76.37
2018-09-16T01:07:03.688Z,76.68
2018-09-16T01:22:38.608Z,75.07
2018-09-16T01:38:19.600Z,72.07
2018-09-16T01:53:54.024Z,70.32
2018-09-16T02:09:29.284Z,68.86
2018-09-16T02:25:04.334Z,67.86
2018-09-16T02:40:39.051Z,67.93
2018-09-16T02:56:13.635Z,68.66
2018-09-16T03:11:48.339Z,67.79
2018-09-16T03:27:22.843Z,67.34
2018-09-16T03:43:06.020Z,64.26
2018-09-16T03:58:40.076Z,61.16
2018-09-16T04:14:14.337Z,61.57
2018-09-16T04:29:49.267Z,59.32
2018-09-16T04:45:23.392Z,56.97
2018-09-16T05:00:57.417Z,52.79
2018-09-16T05:16:31.782Z,52.10
2018-09-16T05:32:06.657Z,51.19
2018-09-16T05:47:41.133Z,49.51
2018-09-16T06:03:16.036Z,49.11
2018-09-16T06:18:50.487Z,43.55
2018-09-16T06:34:25.212Z,41.70
2018-09-16T06:49:58.893Z,37.39
2018-09-16T07:05:33.376Z,38.15
2018-09-16T07:21:08.424Z,36.09
2018-09-16T07:36:41.889Z,36.88
2018-09-16T07:52:16.270Z,35.95
2018-09-16T08:07:51.145Z,32.77
2018-09-16T08:23:26.070Z,34.33
2018-09-16T08:39:00.168Z,36.11
2018-09-16T08:54:35.085Z,35.24
2018-09-16T09:10:09.406Z,33.20
2018-09-16T09:25:44.195Z,31.25
2018-09-16T09:41:18.199Z,33.32
2018-09-16T09:56:51.884Z,33.11
2018-09-16T10:12:25.263Z,34.78
2018-09-16T10:27:59.844Z,31.70
2018-09-16T10:43:34.576Z,32.52
2018-09-16T10:59:08.224Z,30.05
2018-09-16T11:14:42.748Z,27.64
2018-09-16T11:30:16.177Z,30.46
2018-09-16T11:45:50.172Z,32.33
2018-09-16T12:01:24.717Z,31.44
2018-09-16T12:16:59.270Z,34.08
2018-09-16T12:32:34.214Z,34.44
2018-09-16T12:48:08.794Z,34.22
2018-09-16T13:03:43.389Z,37.36
2018-09-16T13:19:18.264Z,38.12
2018-09-16T13:34:52.853Z,37.60
2018-09-16T13:50:26.926Z,37.11
2018-09-16T14:06:00.822Z,38.10
2018-09-16T14:21:35.880Z,38.68
2018-09-16T14:37:10.647Z,40.87
2018-09-16T14:52:45.118Z,42.19
2018-09-16T15:08:22.421Z,43.80
2018-09-16T15:23:57.240Z,44.92
2018-09-16T15:39:32.699Z,46.02
2018-09-16T15:55:06.003Z,48.93
2018-09-16T16:10:40.500Z,52.38
2018-09-16T16:26:14.169Z,56.00
2018-09-16T16:41:49.321Z,59.94
2018-09-16T16:57:24.159Z,61.44
2018-09-16T17:12:58.519Z,60.66
2018-09-16T17:28:33.051Z,58.45
2018-09-16T17:44:08.839Z,56.34
2018-09-16T17:59:43.693Z,55.64
2018-09-16T18:15:17.090Z,55.00
2018-09-16T18:30:52.210Z,54.05
2018-09-16T18:46:27.809Z,54.02
2018-09-16T19:02:02.470Z,54.49
2018-09-16T19:17:36.904Z,54.53
2018-09-16T19:33:11.418Z,55.70
2018-09-16T19:48:45.486Z,56.13
2018-09-16T20:04:19.109Z,56.00
2018-09-16T20:19:54.004Z,56.46
2018-09-16T20:35:28.496Z,54.86
2018-09-16T20:51:03.115Z,56.61
2018-09-16T21:06:37.554Z,57.70
2018-09-16T21:22:12.111Z,58.05
2018-09-16T21:37:46.910Z,58.79
2018-09-16T21:53:21.321Z,60.07
2018-09-16T22:08:55.866Z,61.20
2018-09-16T22:24:29.186Z,62.70
2018-09-16T22:40:02.968Z,64.25
2018-09-16T22:55:37.928Z,67.12
2018-09-16T23:11:12.562Z,69.65
2018-09-16T23:26:47.035Z,72.77
2018-09-16T23:42:21.145Z,75.16
2018-09-16T23:57:55.625Z,76.52
